WFDK1: Walnut River, Winfield, KS

Data processed at Tue May 21 2019 23:50


All information presented herein is the property of the government of the United States of America and may be revised or deleted at any time without prior notice.
Dissemination of this information without the expressed written consent of the Public Affairs Office, Tulsa District U.S. Army Corps of Engineers is strictly prohibited.
These data are gathered electronically and, as presented, have not undergone any form of quality control. These data are not guaranteed to be valid or correct.
Go to home page.
Go to station list.
Go to home page.

Upstream stations:

Downstream station:
Previous Day
Next Day
Current Day
    
SHEF ID:       WFDK1     WALNUT R AT WINFIELD, KS
STATION TYPE:  
Regulating: Stage =    18.00, Flow =    17822

               PRECIP     STAGE  STAGE(2)  RIV-FLOW  BAT-LOAD
                   in        ft        ft       cfs      volt
              Ccp-Rev   Ccp-Rev   Ccp-Rev   Ccp-Rev   Ccp-Rev
(US/Central)
05/21 00:00      0.14     21.03      ----     22346     12.49
05/21 01:00      0.16     21.87      ----     23646     12.41
05/21 02:00      0.08     22.40      ----     24477     12.49
05/21 03:00      0.09     22.84      ----     25172     12.41
05/21 04:00      0.38     23.34      ----     25968     12.49
05/21 05:00      0.99     24.10      ----     27190      ----
05/21 06:00      0.60     25.39      ----     29297     12.41
05/21 07:00      0.20     26.50      ----     31144     12.41
05/21 08:00      0.05     27.05      ----     32069     12.49
05/21 09:00      0.08     27.43      ----     32713     12.49
05/21 10:00      0.00     27.76      ----     33275     12.49
05/21 11:00      0.00     28.11      ----     33873     12.49
05/21 12:00      0.00     28.39      ----     34354     12.57
05/21 13:00      ----     28.92      ----     35269      ----
05/21 14:00      ----     29.40      ----     36103      ----
05/21 15:00      0.00     29.90      ----     36979     13.05
05/21 16:00      0.00     30.58      ----     38180     13.13
05/21 17:00      0.00     31.28      ----     39496     13.13
05/21 18:00      0.00     31.78      ----     40555     12.81
05/21 19:00      0.00     32.36      ----     41912     12.65
05/21 20:00      0.00     32.73      ----     42943     12.73
05/21 21:00      0.00     33.13      ----     44085     12.65
05/21 22:00      0.00     33.26      ----     44539     12.65
05/21 23:00      0.00     33.41      ----     45065     12.57